createdAt,value
2022-12-16T00:02:30.009Z,24.64
2022-12-16T00:04:59.911Z,24.62
2022-12-16T00:07:31.331Z,24.62
2022-12-16T00:10:02.045Z,24.61
2022-12-16T00:12:33.382Z,24.59
2022-12-16T00:15:03.122Z,24.57
2022-12-16T00:17:32.902Z,24.55
2022-12-16T00:20:04.166Z,24.53
2022-12-16T00:22:34.835Z,24.52
2022-12-16T00:25:05.846Z,24.51
2022-12-16T00:27:38.818Z,24.50
2022-12-16T00:30:11.050Z,24.49
2022-12-16T00:32:41.632Z,24.48
2022-12-16T00:35:12.426Z,24.48
2022-12-16T00:37:43.229Z,24.47
2022-12-16T00:40:14.877Z,24.46
2022-12-16T00:42:47.546Z,24.47
2022-12-16T00:45:17.570Z,24.46
2022-12-16T00:47:48.413Z,24.46
2022-12-16T00:50:19.436Z,24.44
2022-12-16T00:52:51.124Z,24.45
2022-12-16T00:55:21.876Z,24.44
2022-12-16T00:57:54.941Z,24.44
2022-12-16T01:00:26.423Z,24.43
2022-12-16T01:02:57.017Z,24.43
2022-12-16T01:05:29.819Z,24.42
2022-12-16T01:08:00.448Z,24.41
2022-12-16T01:10:31.582Z,24.41
2022-12-16T01:13:03.516Z,24.41
2022-12-16T01:15:33.973Z,24.39
2022-12-16T01:18:05.257Z,24.40
2022-12-16T01:20:36.739Z,24.39
2022-12-16T01:23:07.484Z,24.38
2022-12-16T01:25:39.503Z,24.38
2022-12-16T01:28:12.843Z,24.38
2022-12-16T01:30:43.559Z,24.36
2022-12-16T01:33:14.868Z,24.35
2022-12-16T01:35:54.963Z,24.34
2022-12-16T01:38:26.499Z,24.33
2022-12-16T01:40:56.746Z,24.33
2022-12-16T01:43:33.035Z,24.33
2022-12-16T01:46:09.856Z,24.32
2022-12-16T01:48:49.805Z,24.32
2022-12-16T01:51:30.159Z,24.30
2022-12-16T01:57:14.198Z,24.27
2022-12-16T01:59:52.050Z,24.27
2022-12-16T02:02:23.503Z,24.26
2022-12-16T02:05:11.243Z,24.24
2022-12-16T02:07:41.840Z,24.20
2022-12-16T02:13:25.882Z,24.17
2022-12-16T02:16:10.768Z,24.17
2022-12-16T02:18:54.481Z,24.16
2022-12-16T02:21:57.386Z,24.15
2022-12-16T02:25:27.454Z,24.12
2022-12-16T02:31:27.199Z,24.11
2022-12-16T02:34:17.919Z,24.11
2022-12-16T02:37:08.240Z,24.09
2022-12-16T02:39:45.649Z,24.09
2022-12-16T02:42:29.906Z,24.09
2022-12-16T02:48:02.061Z,24.08
2022-12-16T02:50:42.952Z,24.08
2022-12-16T02:53:14.415Z,24.07
2022-12-16T02:56:02.033Z,24.08
2022-12-16T02:58:46.143Z,24.08
2022-12-16T03:04:28.645Z,24.05
2022-12-16T03:07:01.302Z,24.04
2022-12-16T03:09:39.610Z,24.04
2022-12-16T03:12:15.026Z,24.04
2022-12-16T03:14:51.126Z,24.05
2022-12-16T03:20:23.420Z,24.03
2022-12-16T03:23:00.096Z,24.02
2022-12-16T03:25:36.096Z,24.01
2022-12-16T03:28:18.097Z,23.99
2022-12-16T03:30:57.503Z,23.97
2022-12-16T03:33:33.506Z,23.96
2022-12-16T03:36:15.787Z,23.96
2022-12-16T03:38:49.911Z,23.95
2022-12-16T03:41:23.779Z,23.95
2022-12-16T03:43:55.565Z,23.93
2022-12-16T03:46:26.328Z,23.92
2022-12-16T03:48:58.574Z,23.92
2022-12-16T03:54:19.512Z,23.90
2022-12-16T03:56:50.696Z,23.89
2022-12-16T03:59:21.443Z,23.89
2022-12-16T04:01:52.043Z,23.88
2022-12-16T04:04:22.833Z,23.88
2022-12-16T04:07:08.614Z,23.87
2022-12-16T04:09:43.479Z,23.86
2022-12-16T04:12:33.093Z,23.82
2022-12-16T04:15:20.386Z,23.77
2022-12-16T04:18:07.957Z,23.71
2022-12-16T04:20:58.702Z,23.67
2022-12-16T04:23:51.459Z,23.65
2022-12-16T04:26:28.891Z,23.61
2022-12-16T04:28:59.678Z,23.60
2022-12-16T04:31:30.513Z,23.60
2022-12-16T04:34:17.595Z,23.59
2022-12-16T04:37:04.565Z,23.59
2022-12-16T04:39:53.290Z,23.61
2022-12-16T04:45:46.291Z,23.57
2022-12-16T04:48:33.848Z,23.58
2022-12-16T04:51:17.157Z,23.59
2022-12-16T04:54:04.266Z,23.60
2022-12-16T04:56:53.287Z,23.59
2022-12-16T05:02:44.423Z,23.57
2022-12-16T05:05:31.795Z,23.57
2022-12-16T05:08:27.510Z,23.58
2022-12-16T05:11:14.734Z,23.56
2022-12-16T05:14:03.177Z,23.58
2022-12-16T05:16:50.780Z,23.57
2022-12-16T05:19:38.037Z,23.57
2022-12-16T05:22:25.057Z,23.57
2022-12-16T05:25:12.390Z,23.55
2022-12-16T05:28:00.096Z,23.55
2022-12-16T05:33:53.418Z,23.50
2022-12-16T05:36:40.404Z,23.48
2022-12-16T05:39:27.167Z,23.49
2022-12-16T05:42:15.262Z,23.49
2022-12-16T05:45:02.303Z,23.50
2022-12-16T05:47:50.995Z,23.53
2022-12-16T05:50:38.295Z,23.56
2022-12-16T05:53:25.197Z,23.58
2022-12-16T05:56:12.142Z,23.62
2022-12-16T05:58:59.162Z,23.65
2022-12-16T06:01:46.273Z,23.67
2022-12-16T06:04:35.203Z,23.70
2022-12-16T06:07:22.048Z,23.74
2022-12-16T06:10:09.263Z,23.82
2022-12-16T06:12:56.816Z,23.94
2022-12-16T06:15:43.639Z,24.15
2022-12-16T06:18:30.401Z,24.40
2022-12-16T06:21:19.230Z,24.71
2022-12-16T06:24:02.833Z,25.05
2022-12-16T06:26:50.060Z,25.40
2022-12-16T06:29:36.970Z,25.74
2022-12-16T06:32:23.811Z,26.08
2022-12-16T06:35:10.065Z,26.41
2022-12-16T06:37:58.828Z,26.74
2022-12-16T06:40:46.167Z,27.03
2022-12-16T06:43:29.715Z,27.35
2022-12-16T06:46:17.252Z,27.66
2022-12-16T06:49:15.723Z,27.96
2022-12-16T06:52:02.738Z,28.25
2022-12-16T06:54:52.938Z,28.53
2022-12-16T06:57:40.072Z,28.80
2022-12-16T07:00:28.871Z,29.08
2022-12-16T07:03:16.529Z,29.34
2022-12-16T07:06:04.350Z,29.60
2022-12-16T07:08:52.032Z,29.85
2022-12-16T07:11:42.277Z,30.10
2022-12-16T07:14:30.506Z,30.34
2022-12-16T07:17:17.956Z,30.56
2022-12-16T07:20:01.738Z,30.80
2022-12-16T07:22:56.153Z,31.03
2022-12-16T07:25:55.302Z,31.26
2022-12-16T07:28:45.331Z,31.51
2022-12-16T07:31:33.947Z,31.73
2022-12-16T07:34:20.719Z,31.96
2022-12-16T07:37:07.899Z,32.17
2022-12-16T07:39:56.159Z,32.40
2022-12-16T07:42:43.267Z,32.62
2022-12-16T07:45:33.155Z,32.84
2022-12-16T07:48:24.521Z,33.07
2022-12-16T07:51:13.436Z,33.30
2022-12-16T07:54:02.190Z,33.51
2022-12-16T07:56:50.058Z,33.75
2022-12-16T07:59:38.976Z,34.01
2022-12-16T08:02:28.908Z,34.28
2022-12-16T08:05:16.064Z,34.60
2022-12-16T08:08:03.369Z,34.92
2022-12-16T08:10:50.541Z,35.31
2022-12-16T08:13:38.555Z,35.71
2022-12-16T08:16:26.957Z,36.13
2022-12-16T08:19:16.611Z,36.58
2022-12-16T08:22:03.429Z,37.03
2022-12-16T08:24:53.530Z,37.51
2022-12-16T08:27:41.031Z,37.99
2022-12-16T08:30:29.817Z,38.48
2022-12-16T08:33:19.537Z,38.97
2022-12-16T08:36:19.616Z,39.45
2022-12-16T08:39:06.790Z,39.89
2022-12-16T08:41:54.575Z,40.13
2022-12-16T08:44:42.790Z,40.08
2022-12-16T08:47:29.954Z,39.85
2022-12-16T08:50:17.332Z,39.50
2022-12-16T08:53:07.005Z,39.09
2022-12-16T08:55:55.924Z,38.69
2022-12-16T08:58:42.783Z,38.29
2022-12-16T09:01:30.589Z,37.89
2022-12-16T09:04:18.548Z,37.49
2022-12-16T09:07:08.064Z,37.10
2022-12-16T09:09:56.589Z,36.74
2022-12-16T09:12:43.645Z,36.39
2022-12-16T09:15:30.912Z,36.05
2022-12-16T09:18:18.097Z,35.75
2022-12-16T09:21:05.077Z,35.46
2022-12-16T09:23:52.086Z,35.20
2022-12-16T09:26:41.731Z,34.96
2022-12-16T09:29:28.628Z,34.78
2022-12-16T09:32:14.810Z,34.70
2022-12-16T09:35:01.751Z,34.73
2022-12-16T09:37:48.751Z,34.76
2022-12-16T09:40:37.098Z,34.68
2022-12-16T09:43:45.867Z,34.54
2022-12-16T09:46:53.622Z,34.31
2022-12-16T09:50:07.852Z,34.08
2022-12-16T09:53:05.132Z,33.85
2022-12-16T09:55:59.077Z,33.62
2022-12-16T09:58:55.574Z,33.39
2022-12-16T10:01:55.561Z,33.16
2022-12-16T10:04:44.380Z,32.91
2022-12-16T10:07:37.681Z,32.70
2022-12-16T10:10:42.644Z,32.44
2022-12-16T10:13:39.660Z,32.19
2022-12-16T10:16:43.581Z,31.95
2022-12-16T10:19:52.530Z,31.75
2022-12-16T10:22:52.419Z,31.59
2022-12-16T10:25:45.104Z,31.45
2022-12-16T10:28:38.321Z,31.34
2022-12-16T10:31:36.354Z,31.23
2022-12-16T10:34:30.948Z,31.12
2022-12-16T10:37:21.059Z,31.00
2022-12-16T10:40:14.974Z,30.87
2022-12-16T10:43:10.276Z,30.79
2022-12-16T10:46:06.119Z,30.69
2022-12-16T10:48:56.940Z,30.58
2022-12-16T10:51:47.952Z,30.48
2022-12-16T10:54:58.169Z,30.37
2022-12-16T10:58:05.079Z,30.26
2022-12-16T11:01:06.339Z,30.15
2022-12-16T11:03:58.497Z,30.02
2022-12-16T11:06:57.357Z,29.92
2022-12-16T11:09:49.027Z,29.86
2022-12-16T11:12:46.077Z,29.80
2022-12-16T11:15:52.387Z,29.75
2022-12-16T11:18:53.977Z,29.69
2022-12-16T11:21:43.271Z,29.63
2022-12-16T11:24:34.698Z,29.59
2022-12-16T11:27:24.781Z,29.54
2022-12-16T11:30:15.571Z,29.47
2022-12-16T11:33:08.308Z,29.38
2022-12-16T11:36:00.979Z,29.27
2022-12-16T11:39:01.745Z,29.17
2022-12-16T11:41:54.034Z,29.10
2022-12-16T11:44:47.512Z,29.04
2022-12-16T11:47:46.099Z,28.98
2022-12-16T11:50:53.640Z,28.92
2022-12-16T11:53:55.610Z,28.86
2022-12-16T11:56:58.509Z,28.81
2022-12-16T11:59:58.457Z,28.75
2022-12-16T12:02:56.775Z,28.70
2022-12-16T12:05:57.800Z,28.66
2022-12-16T12:08:59.980Z,28.62
2022-12-16T12:11:53.393Z,28.59
2022-12-16T12:14:58.809Z,28.57
2022-12-16T12:18:01.607Z,28.54
2022-12-16T12:21:05.069Z,28.52
2022-12-16T12:24:10.860Z,28.47
2022-12-16T12:27:13.063Z,28.45
2022-12-16T12:30:21.113Z,28.40
2022-12-16T12:33:31.264Z,28.34
2022-12-16T12:36:36.192Z,28.30
2022-12-16T12:39:40.523Z,28.26
2022-12-16T12:42:56.649Z,28.23
2022-12-16T12:46:12.922Z,28.22
2022-12-16T12:49:13.383Z,28.18
2022-12-16T12:52:15.274Z,28.14
2022-12-16T12:55:23.446Z,28.10
2022-12-16T12:58:14.425Z,28.05
2022-12-16T13:01:10.012Z,28.00
2022-12-16T13:04:04.241Z,27.97
2022-12-16T13:06:54.813Z,27.95
2022-12-16T13:09:50.869Z,27.96
2022-12-16T13:12:49.256Z,27.95
2022-12-16T13:16:05.798Z,27.94
2022-12-16T13:18:53.422Z,27.92
2022-12-16T13:22:04.154Z,27.93
2022-12-16T13:25:09.300Z,27.89
2022-12-16T13:28:15.737Z,27.88
2022-12-16T13:31:25.834Z,27.85
2022-12-16T13:34:16.218Z,27.84
2022-12-16T13:37:12.064Z,27.82
2022-12-16T13:40:03.135Z,27.82
2022-12-16T13:43:12.120Z,27.80
2022-12-16T13:46:03.137Z,27.77
2022-12-16T13:48:57.812Z,27.75
2022-12-16T13:52:19.895Z,27.72
2022-12-16T13:55:31.317Z,27.68
2022-12-16T13:58:27.367Z,27.67
2022-12-16T14:01:25.532Z,27.66
2022-12-16T14:04:28.443Z,27.65
2022-12-16T14:07:24.594Z,27.63
2022-12-16T14:10:12.339Z,27.63
2022-12-16T14:13:26.088Z,27.62
2022-12-16T14:16:26.000Z,27.60
2022-12-16T14:19:47.096Z,27.59
2022-12-16T14:23:00.651Z,27.57
2022-12-16T14:25:49.104Z,27.55
2022-12-16T14:28:47.245Z,27.54
2022-12-16T14:31:40.573Z,27.53
2022-12-16T14:34:36.266Z,27.53
2022-12-16T14:37:32.863Z,27.52
2022-12-16T14:40:19.788Z,27.50
2022-12-16T14:43:12.966Z,27.49
2022-12-16T14:46:11.379Z,27.47
2022-12-16T14:48:59.772Z,27.44
2022-12-16T14:51:49.691Z,27.43
2022-12-16T14:55:03.161Z,27.40
2022-12-16T14:57:52.062Z,27.37
2022-12-16T15:00:42.456Z,27.36
2022-12-16T15:03:45.128Z,27.34
2022-12-16T15:06:42.504Z,27.33
2022-12-16T15:09:37.726Z,27.31
2022-12-16T15:12:27.479Z,27.30
2022-12-16T15:15:17.150Z,27.29
2022-12-16T15:18:10.356Z,27.28
2022-12-16T15:21:12.069Z,27.25
2022-12-16T15:24:02.007Z,27.24
2022-12-16T15:26:51.857Z,27.22
2022-12-16T15:29:52.523Z,27.21
2022-12-16T15:32:53.787Z,27.20
2022-12-16T15:35:50.749Z,27.18
2022-12-16T15:38:47.993Z,27.18
2022-12-16T15:41:46.215Z,27.16
2022-12-16T15:44:36.930Z,27.14
2022-12-16T15:47:35.368Z,27.14
2022-12-16T15:50:24.348Z,27.14
2022-12-16T15:53:11.544Z,27.12
2022-12-16T15:56:04.928Z,27.10
2022-12-16T15:58:54.911Z,27.10
2022-12-16T16:01:45.965Z,27.09
2022-12-16T16:04:41.269Z,27.08
2022-12-16T16:07:36.286Z,27.06
2022-12-16T16:10:40.778Z,27.03
2022-12-16T16:13:30.832Z,27.01
2022-12-16T16:16:18.677Z,27.00
2022-12-16T16:19:05.513Z,26.99
2022-12-16T16:21:52.355Z,26.97
2022-12-16T16:24:39.814Z,26.96
2022-12-16T16:27:32.221Z,26.94
2022-12-16T16:30:21.472Z,26.93
2022-12-16T16:33:08.275Z,26.91
2022-12-16T16:35:55.159Z,26.89
2022-12-16T16:38:42.134Z,26.88
2022-12-16T16:41:34.668Z,26.88
2022-12-16T16:44:21.544Z,26.87
2022-12-16T16:47:10.804Z,26.86
2022-12-16T16:50:03.460Z,26.85
2022-12-16T16:52:51.600Z,26.83
2022-12-16T16:55:41.132Z,26.82
2022-12-16T16:58:49.847Z,26.80
2022-12-16T17:01:38.187Z,26.79
2022-12-16T17:04:27.409Z,26.76
2022-12-16T17:07:14.492Z,26.76
2022-12-16T17:10:01.495Z,26.75
2022-12-16T17:12:50.169Z,26.75
2022-12-16T17:15:42.213Z,26.74
2022-12-16T17:18:29.474Z,26.73
2022-12-16T17:21:18.401Z,26.72
2022-12-16T17:24:05.474Z,26.71
2022-12-16T17:26:52.562Z,26.70
2022-12-16T17:29:42.754Z,26.69
2022-12-16T17:32:29.988Z,26.66
2022-12-16T17:35:17.241Z,26.65
2022-12-16T17:38:06.487Z,26.64
2022-12-16T17:40:53.366Z,26.61
2022-12-16T17:43:40.373Z,26.59
2022-12-16T17:46:30.321Z,26.58
2022-12-16T17:49:18.905Z,26.56
2022-12-16T17:52:05.616Z,26.56
2022-12-16T17:54:54.616Z,26.54
2022-12-16T17:57:41.399Z,26.53
2022-12-16T18:00:29.543Z,26.51
2022-12-16T18:03:16.345Z,26.48
2022-12-16T18:06:03.167Z,26.46
2022-12-16T18:08:51.772Z,26.46
2022-12-16T18:11:41.157Z,26.45
2022-12-16T18:14:27.789Z,26.42
2022-12-16T18:17:14.626Z,26.41
2022-12-16T18:20:01.684Z,26.39
2022-12-16T18:22:48.794Z,26.36
2022-12-16T18:25:35.588Z,26.34
2022-12-16T18:28:24.746Z,26.32
2022-12-16T18:31:11.868Z,26.32
2022-12-16T18:33:58.679Z,26.29
2022-12-16T18:36:45.713Z,26.27
2022-12-16T18:39:34.944Z,26.25
2022-12-16T18:42:22.022Z,26.24
2022-12-16T18:45:11.324Z,26.21
2022-12-16T18:47:58.397Z,26.19
2022-12-16T18:50:45.146Z,26.17
2022-12-16T18:53:32.139Z,26.16
2022-12-16T18:56:20.988Z,26.13
2022-12-16T18:59:06.997Z,26.10
2022-12-16T19:01:56.585Z,26.09
2022-12-16T19:04:43.537Z,26.06
2022-12-16T19:07:33.590Z,26.05
2022-12-16T19:10:21.050Z,26.02
2022-12-16T19:13:08.112Z,26.00
2022-12-16T19:15:55.159Z,25.98
2022-12-16T19:18:43.357Z,25.98
2022-12-16T19:21:30.675Z,25.95
2022-12-16T19:24:17.835Z,25.93
2022-12-16T19:27:09.255Z,25.90
2022-12-16T19:29:58.856Z,25.87
2022-12-16T19:32:45.740Z,25.85
2022-12-16T19:35:34.694Z,25.82
2022-12-16T19:38:21.670Z,25.81
2022-12-16T19:41:11.646Z,25.79
2022-12-16T19:44:05.655Z,25.77
2022-12-16T19:46:55.982Z,25.75
2022-12-16T19:49:44.649Z,25.73
2022-12-16T19:52:33.648Z,25.72
2022-12-16T19:55:20.696Z,25.70
2022-12-16T19:58:07.977Z,25.70
2022-12-16T20:00:55.022Z,25.68
2022-12-16T20:03:44.511Z,25.67
2022-12-16T20:06:32.574Z,25.66
2022-12-16T20:09:21.325Z,25.65
2022-12-16T20:12:07.968Z,25.63
2022-12-16T20:14:56.470Z,25.61
2022-12-16T20:17:56.008Z,25.59
2022-12-16T20:20:43.117Z,25.57
2022-12-16T20:23:30.484Z,25.56
2022-12-16T20:26:21.380Z,25.55
2022-12-16T20:29:08.957Z,25.54
2022-12-16T20:31:56.365Z,25.52
2022-12-16T20:34:43.111Z,25.52
2022-12-16T20:37:30.304Z,25.50
2022-12-16T20:40:17.367Z,25.49
2022-12-16T20:43:06.499Z,25.48
2022-12-16T20:45:54.865Z,25.47
2022-12-16T20:48:42.757Z,25.45
2022-12-16T20:51:29.574Z,25.42
2022-12-16T20:54:16.339Z,25.41
2022-12-16T20:57:05.959Z,25.40
2022-12-16T20:59:57.143Z,25.39
2022-12-16T21:02:44.465Z,25.38
2022-12-16T21:05:31.487Z,25.38
2022-12-16T21:08:18.773Z,25.37
2022-12-16T21:11:05.886Z,25.36
2022-12-16T21:13:56.534Z,25.35
2022-12-16T21:16:45.202Z,25.33
2022-12-16T21:19:35.138Z,25.32
2022-12-16T21:22:22.301Z,25.30
2022-12-16T21:25:09.057Z,25.28
2022-12-16T21:27:56.442Z,25.28
2022-12-16T21:30:43.690Z,25.27
2022-12-16T21:33:40.213Z,25.28
2022-12-16T21:36:27.941Z,25.27
2022-12-16T21:39:15.019Z,25.26
2022-12-16T21:42:02.265Z,25.26
2022-12-16T21:44:49.135Z,25.25
2022-12-16T21:47:36.310Z,25.26
2022-12-16T21:50:26.216Z,25.26
2022-12-16T21:53:13.327Z,25.24
2022-12-16T21:56:00.196Z,25.24
2022-12-16T21:58:47.189Z,25.24
2022-12-16T22:01:34.509Z,25.24
2022-12-16T22:04:21.092Z,25.23
2022-12-16T22:07:10.997Z,25.23
2022-12-16T22:09:58.179Z,25.22
2022-12-16T22:12:45.367Z,25.20
2022-12-16T22:15:32.979Z,25.19
2022-12-16T22:18:20.020Z,25.18
2022-12-16T22:21:16.688Z,25.18
2022-12-16T22:24:05.398Z,25.17
2022-12-16T22:26:52.216Z,25.16
2022-12-16T22:29:40.440Z,25.15
2022-12-16T22:32:27.155Z,25.14
2022-12-16T22:35:14.018Z,25.13
2022-12-16T22:38:01.129Z,25.13
2022-12-16T22:40:49.899Z,25.12
2022-12-16T22:43:37.025Z,25.11
2022-12-16T22:46:24.384Z,25.09
2022-12-16T22:49:10.669Z,25.08
2022-12-16T22:51:57.743Z,25.07
2022-12-16T22:54:44.694Z,25.07
2022-12-16T22:57:33.364Z,25.07
2022-12-16T23:00:20.634Z,25.05
2022-12-16T23:03:07.581Z,25.04
2022-12-16T23:05:54.491Z,25.03
2022-12-16T23:08:41.621Z,25.02
2022-12-16T23:11:38.792Z,25.01
2022-12-16T23:14:27.710Z,25.00
2022-12-16T23:17:14.510Z,24.99
2022-12-16T23:20:01.541Z,24.97
2022-12-16T23:22:48.311Z,24.96
2022-12-16T23:25:34.914Z,24.95
2022-12-16T23:28:30.245Z,24.95
2022-12-16T23:31:19.010Z,24.94
2022-12-16T23:34:05.372Z,24.92
2022-12-16T23:36:52.334Z,24.94
2022-12-16T23:40:06.148Z,24.92
2022-12-16T23:42:52.919Z,24.90
2022-12-16T23:45:42.883Z,24.90
2022-12-16T23:48:31.517Z,24.90
2022-12-16T23:51:18.426Z,24.90
2022-12-16T23:54:06.407Z,24.88
2022-12-16T23:56:53.429Z,24.86
2022-12-16T23:59:43.380Z,24.86
